Time;durP1;ratioP1;P1;durP2;ratioP2;P2;SDS_P1;SDS_P2;PMS_P1;PMS_P2;Temp;Humidity;BMP_temperature;BMP_pressure;BME280_temperature;BME280_humidity;BME280_pressure;Samples;Min_cycle;Max_cycle;Signal;HPM_P1;HPM_P2
2022/09/06 00:00:59;;;;;;;11.87;11.43;;;22.10;29.90;;;;;;5054503;28;20501;-56
2022/09/06 00:03:26;;;;;;;12.40;11.90;;;22.00;29.80;;;;;;5054630;28;20457;-57
2022/09/06 00:05:53;;;;;;;12.43;11.83;;;22.00;30.00;;;;;;5054532;28;20179;-56
2022/09/06 00:08:18;;;;;;;12.03;11.40;;;22.00;29.90;;;;;;5054505;28;20476;-55
2022/09/06 00:10:44;;;;;;;12.43;11.83;;;22.00;30.00;;;;;;5054228;28;20414;-57
2022/09/06 00:13:10;;;;;;;12.70;11.93;;;22.00;30.00;;;;;;5054464;28;20203;-57
2022/09/06 00:15:36;;;;;;;12.40;11.80;;;22.00;30.50;;;;;;5054240;28;20213;-57
2022/09/06 00:18:04;;;;;;;12.63;12.03;;;22.00;30.00;;;;;;5054379;28;20554;-56
2022/09/06 00:20:31;;;;;;;13.07;12.40;;;22.00;30.00;;;;;;5054065;28;20817;-56
2022/09/06 00:22:58;;;;;;;12.33;11.80;;;22.00;30.00;;;;;;5054307;28;20436;-55
2022/09/06 00:25:25;;;;;;;13.17;12.37;;;21.90;30.50;;;;;;5054120;28;20412;-56
2022/09/06 00:27:56;;;;;;;13.60;12.90;;;21.90;30.50;;;;;;5054003;28;20421;-56
2022/09/06 00:30:22;;;;;;;13.13;12.53;;;21.70;31.40;;;;;;5054081;28;20417;-56
2022/09/06 00:32:48;;;;;;;12.37;11.80;;;21.80;31.40;;;;;;5053935;28;20487;-56
2022/09/06 00:35:14;;;;;;;13.17;12.37;;;21.80;31.40;;;;;;5054016;28;20890;-57
2022/09/06 00:37:39;;;;;;;13.80;12.60;;;21.80;31.40;;;;;;5054125;28;20171;-57
2022/09/06 00:40:06;;;;;;;13.40;12.73;;;21.80;31.40;;;;;;5054085;28;20175;-56
2022/09/06 00:42:32;;;;;;;12.77;12.07;;;21.80;31.60;;;;;;5037953;28;20168;-57
2022/09/06 00:44:57;;;;;;;13.33;12.73;;;21.80;32.00;;;;;;5036905;28;20413;-55
2022/09/06 00:47:26;;;;;;;13.57;12.87;;;21.80;31.90;;;;;;5031871;28;20191;-57
2022/09/06 00:49:54;;;;;;;13.03;12.33;;;21.80;32.00;;;;;;5031998;28;20314;-57
2022/09/06 00:52:20;;;;;;;12.93;12.33;;;21.70;31.90;;;;;;5031851;28;20458;-56
2022/09/06 00:54:49;;;;;;;13.60;12.97;;;21.70;32.10;;;;;;5032054;28;20405;-56
2022/09/06 00:57:15;;;;;;;13.30;12.70;;;21.70;32.90;;;;;;5032172;28;20411;-56
2022/09/06 00:59:42;;;;;;;13.57;12.97;;;21.70;32.30;;;;;;5031983;28;20434;-54
2022/09/06 01:02:08;;;;;;;13.63;13.03;;;21.60;32.50;;;;;;5032463;28;20505;-53
2022/09/06 01:04:36;;;;;;;13.33;12.73;;;21.60;32.30;;;;;;5036006;28;20718;-54
2022/09/06 01:07:10;;;;;;;13.27;12.50;;;21.60;32.80;;;;;;5036660;28;20425;-52
2022/09/06 01:09:52;;;;;;;13.57;12.97;;;21.60;32.50;;;;;;5037889;28;20953;-55
2022/09/06 01:12:45;;;;;;;13.40;12.73;;;21.60;32.50;;;;;;5037706;28;20458;-53
2022/09/06 01:15:39;;;;;;;13.80;12.70;;;21.50;32.60;;;;;;5037864;28;20433;-55
2022/09/06 01:18:36;;;;;;;13.83;13.23;;;21.50;32.90;;;;;;5037688;28;20422;-53
2022/09/06 01:21:07;;;;;;;13.60;13.00;;;21.50;33.00;;;;;;5037535;28;20820;-54
2022/09/06 01:24:01;;;;;;;13.53;12.93;;;21.50;33.00;;;;;;5055679;28;20460;-54
2022/09/06 01:26:52;;;;;;;13.33;12.63;;;21.50;33.20;;;;;;5037538;28;20418;-53
2022/09/06 01:29:40;;;;;;;14.50;13.13;;;21.40;32.80;;;;;;5037731;28;20752;-54
2022/09/06 01:32:11;;;;;;;14.07;13.37;;;21.40;33.00;;;;;;5037242;28;20465;-55
2022/09/06 01:34:44;;;;;;;13.63;13.10;;;21.50;32.70;;;;;;5037308;28;20427;-54
2022/09/06 01:37:16;;;;;;;13.43;12.83;;;21.40;32.60;;;;;;5037132;28;20402;-52
2022/09/06 01:39:42;;;;;;;13.63;12.97;;;21.40;32.00;;;;;;5037158;28;20418;-53
2022/09/06 01:42:13;;;;;;;13.07;12.47;;;21.50;31.20;;;;;;5036805;28;20425;-54
2022/09/06 01:44:44;;;;;;;12.67;12.10;;;21.50;31.20;;;;;;5037257;28;20179;-53
2022/09/06 01:47:17;;;;;;;12.90;12.30;;;21.40;31.60;;;;;;5037258;28;20418;-55
2022/09/06 01:50:11;;;;;;;12.87;12.27;;;21.40;31.90;;;;;;5036954;28;20504;-54
2022/09/06 01:52:55;;;;;;;13.40;12.17;;;21.40;31.50;;;;;;5054782;28;20465;-55
2022/09/06 01:55:50;;;;;;;14.07;13.17;;;21.30;31.60;;;;;;5077774;22;20500;-42
2022/09/06 01:58:51;;;;;;;13.60;13.00;;;21.40;31.10;;;;;;5056102;28;20454;-41
2022/09/06 02:01:44;;;;;;;13.60;12.90;;;21.40;31.10;;;;;;5060156;28;20413;-44
2022/09/06 02:04:24;;;;;;;13.63;12.93;;;21.40;31.10;;;;;;5070198;28;20418;-41
2022/09/06 02:06:59;;;;;;;14.17;13.37;;;21.40;31.10;;;;;;5053216;28;20871;-42
2022/09/06 02:09:29;;;;;;;14.70;14.00;;;21.40;31.10;;;;;;5053384;28;20762;-41
2022/09/06 02:12:00;;;;;;;14.23;13.63;;;21.40;31.10;;;;;;5052868;28;20502;-42
2022/09/06 02:14:36;;;;;;;14.57;13.87;;;21.40;31.50;;;;;;5052307;28;20423;-46
2022/09/06 02:17:04;;;;;;;13.80;13.27;;;21.40;31.80;;;;;;5053225;28;20925;-48
2022/09/06 02:19:35;;;;;;;13.90;13.30;;;21.40;31.90;;;;;;5053008;28;20453;-46
2022/09/06 02:22:05;;;;;;;13.30;12.80;;;21.30;31.00;;;;;;5052950;28;20499;-46
2022/09/06 02:24:35;;;;;;;13.23;12.67;;;21.30;31.00;;;;;;5053096;28;20422;-47
2022/09/06 02:27:02;;;;;;;13.80;13.00;;;21.30;29.90;;;;;;5053037;28;20450;-50
2022/09/06 02:29:28;;;;;;;14.50;13.50;;;21.30;29.90;;;;;;5052971;28;20516;-47
2022/09/06 02:32:02;;;;;;;15.20;14.20;;;21.30;29.90;;;;;;5053940;28;20493;-48
2022/09/06 02:34:28;;;;;;;14.23;13.53;;;21.40;29.80;;;;;;5052978;28;20198;-54
2022/09/06 02:36:54;;;;;;;13.90;13.30;;;21.40;29.60;;;;;;5052622;28;20422;-54
2022/09/06 02:39:20;;;;;;;14.50;13.90;;;21.50;29.60;;;;;;5052532;28;20415;-51
2022/09/06 02:41:47;;;;;;;15.00;14.33;;;21.50;29.60;;;;;;5052653;28;20425;-54
2022/09/06 02:44:13;;;;;;;14.90;14.10;;;21.50;29.70;;;;;;5052756;28;20215;-54
2022/09/06 02:46:38;;;;;;;14.17;13.47;;;21.60;29.80;;;;;;5052814;28;20430;-53
2022/09/06 02:49:05;;;;;;;14.20;13.60;;;21.60;31.10;;;;;;5052699;28;20418;-53
2022/09/06 02:51:38;;;;;;;14.20;13.60;;;21.70;30.40;;;;;;5052066;28;20191;-54
2022/09/06 02:54:04;;;;;;;15.07;14.20;;;21.70;31.40;;;;;;5053907;28;20418;-54
2022/09/06 02:56:32;;;;;;;16.03;14.70;;;21.70;31.30;;;;;;5052344;28;20538;-54
2022/09/06 02:58:58;;;;;;;15.93;15.03;;;21.70;34.40;;;;;;5052201;28;20460;-55
2022/09/06 03:01:24;;;;;;;16.20;14.90;;;21.70;38.70;;;;;;5052310;28;20457;-45
2022/09/06 03:03:49;;;;;;;15.27;14.37;;;21.60;41.70;;;;;;5052433;28;20450;-45
2022/09/06 03:06:15;;;;;;;15.00;14.20;;;21.50;42.80;;;;;;5052333;28;20184;-42
2022/09/06 03:08:41;;;;;;;14.80;14.10;;;21.40;44.50;;;;;;5053463;28;20180;-46
2022/09/06 03:11:06;;;;;;;16.47;15.57;;;21.30;45.50;;;;;;5052126;28;20184;-45
2022/09/06 03:13:32;;;;;;;15.70;14.80;;;21.20;45.90;;;;;;5052053;28;20214;-46
2022/09/06 03:15:59;;;;;;;15.97;14.77;;;21.10;44.40;;;;;;5051870;28;20187;-45
2022/09/06 03:18:27;;;;;;;15.83;15.10;;;21.00;45.80;;;;;;5051961;28;20418;-43
2022/09/06 03:20:53;;;;;;;15.90;15.00;;;21.00;46.60;;;;;;5051755;28;20488;-44
2022/09/06 03:23:20;;;;;;;15.70;14.90;;;21.00;46.80;;;;;;5051851;28;20423;-45
2022/09/06 03:25:46;;;;;;;16.50;15.57;;;20.90;47.10;;;;;;5051830;28;20762;-47
2022/09/06 03:28:12;;;;;;;15.47;14.60;;;20.90;46.30;;;;;;5051785;28;20472;-45
2022/09/06 03:30:38;;;;;;;16.07;15.07;;;20.90;46.20;;;;;;5051760;28;20593;-45
2022/09/06 03:33:04;;;;;;;15.47;14.80;;;20.90;46.40;;;;;;5051721;28;20294;-46
2022/09/06 03:35:30;;;;;;;16.03;15.23;;;20.90;46.00;;;;;;5051667;28;20457;-48
2022/09/06 03:37:55;;;;;;;15.80;15.10;;;20.80;46.50;;;;;;5051691;28;20180;-44
2022/09/06 03:40:21;;;;;;;17.60;16.40;;;20.70;47.60;;;;;;5051467;28;20176;-48
2022/09/06 03:42:47;;;;;;;17.10;16.10;;;20.70;47.80;;;;;;5051481;28;20179;-48
2022/09/06 03:45:12;;;;;;;15.00;14.30;;;20.70;47.90;;;;;;5051668;28;20180;-49
2022/09/06 03:47:38;;;;;;;15.70;14.60;;;20.70;48.40;;;;;;5051479;28;20222;-43
2022/09/06 03:50:05;;;;;;;16.37;15.57;;;20.70;48.50;;;;;;5051341;28;20184;-43
2022/09/06 03:52:32;;;;;;;15.83;14.73;;;20.70;49.00;;;;;;5051198;28;20215;-46
2022/09/06 03:54:57;;;;;;;16.93;15.93;;;20.70;48.80;;;;;;5058280;28;20453;-56
2022/09/06 03:57:23;;;;;;;16.53;15.50;;;20.60;50.50;;;;;;5071495;28;21117;-52
2022/09/06 03:59:49;;;;;;;15.53;14.60;;;20.40;50.90;;;;;;5071270;28;20630;-51
2022/09/06 04:02:14;;;;;;;17.10;15.60;;;20.30;52.40;;;;;;5071374;28;20274;-54
2022/09/06 04:04:40;;;;;;;15.83;15.00;;;20.30;52.30;;;;;;5071258;28;20582;-50
2022/09/06 04:07:06;;;;;;;16.37;15.47;;;20.40;51.80;;;;;;5071275;28;20198;-56
2022/09/06 04:09:31;;;;;;;15.10;14.40;;;20.50;51.10;;;;;;5071267;28;20218;-41
2022/09/06 04:11:57;;;;;;;16.40;15.50;;;20.50;50.90;;;;;;5071282;28;20234;-42
2022/09/06 04:14:23;;;;;;;16.40;15.57;;;20.60;50.70;;;;;;5071124;28;20582;-41
2022/09/06 04:16:49;;;;;;;16.50;15.60;;;20.40;50.00;;;;;;5071439;28;20224;-52
2022/09/06 04:19:14;;;;;;;15.90;15.10;;;20.20;51.60;;;;;;5070991;28;20203;-53
2022/09/06 04:21:40;;;;;;;16.07;15.27;;;20.10;51.00;;;;;;5070460;28;20521;-54
2022/09/06 04:24:05;;;;;;;15.53;14.80;;;20.10;51.40;;;;;;5070825;28;20183;-55
2022/09/06 04:26:31;;;;;;;16.70;15.90;;;20.20;51.40;;;;;;5070838;28;20179;-54
2022/09/06 04:28:57;;;;;;;14.87;14.17;;;20.20;51.50;;;;;;5070911;28;20638;-51
2022/09/06 04:31:22;;;;;;;16.23;15.40;;;20.10;53.40;;;;;;5070992;28;20635;-54
2022/09/06 04:33:48;;;;;;;16.00;15.20;;;20.10;52.80;;;;;;5071005;28;20175;-58
2022/09/06 04:36:14;;;;;;;15.53;14.53;;;20.20;52.00;;;;;;5071045;28;20175;-56
2022/09/06 04:38:42;;;;;;;15.50;14.80;;;20.30;50.70;;;;;;5070358;28;20772;-55
2022/09/06 04:41:10;;;;;;;15.17;14.47;;;20.30;50.70;;;;;;5070913;28;20258;-56
2022/09/06 04:43:36;;;;;;;16.23;15.43;;;20.30;50.70;;;;;;5070999;28;21057;-48
2022/09/06 04:46:20;;;;;;;16.67;15.87;;;20.30;50.10;;;;;;5071084;28;20410;-49
2022/09/06 04:48:49;;;;;;;16.10;15.30;;;20.40;50.40;;;;;;5070863;28;20417;-42
2022/09/06 04:51:14;;;;;;;16.93;16.03;;;20.40;50.40;;;;;;5070468;28;20747;-42
2022/09/06 04:53:40;;;;;;;15.90;15.00;;;20.40;50.10;;;;;;5070572;28;20557;-43
2022/09/06 04:56:05;;;;;;;16.00;15.07;;;20.40;50.80;;;;;;5070345;28;20187;-50
2022/09/06 04:58:31;;;;;;;16.23;15.33;;;20.40;50.80;;;;;;5072204;28;20203;-46
2022/09/06 05:00:57;;;;;;;16.70;15.90;;;20.40;50.80;;;;;;5070656;28;20178;-48
2022/09/06 05:03:22;;;;;;;16.20;15.30;;;20.50;50.80;;;;;;5068732;28;20171;-48
2022/09/06 05:05:48;;;;;;;16.67;15.80;;;20.50;50.90;;;;;;5062739;28;20180;-48
2022/09/06 05:08:14;;;;;;;16.07;15.17;;;20.50;50.80;;;;;;5034064;28;20184;-45
2022/09/06 05:10:40;;;;;;;15.80;15.10;;;20.50;50.80;;;;;;5053537;28;20202;-45
2022/09/06 05:13:05;;;;;;;15.90;15.10;;;20.50;50.90;;;;;;5055590;28;20462;-46
2022/09/06 05:15:32;;;;;;;17.37;16.47;;;20.50;50.90;;;;;;5050564;28;20271;-46
2022/09/06 05:18:03;;;;;;;16.20;15.30;;;20.40;50.80;;;;;;5050669;28;20172;-43
2022/09/06 05:20:29;;;;;;;16.50;15.57;;;20.50;50.90;;;;;;5055463;28;20439;-43
2022/09/06 05:22:54;;;;;;;17.27;16.37;;;20.50;50.00;;;;;;5070552;28;20413;-43
2022/09/06 05:25:20;;;;;;;15.40;14.50;;;20.50;49.20;;;;;;5053564;28;20467;-43
2022/09/06 05:27:46;;;;;;;15.97;15.27;;;20.40;49.50;;;;;;5070550;28;20176;-41
2022/09/06 05:30:12;;;;;;;16.77;15.57;;;20.40;50.40;;;;;;5071616;28;20525;-42
2022/09/06 05:32:38;;;;;;;16.37;15.50;;;20.40;50.80;;;;;;5070028;28;20564;-42
2022/09/06 05:35:04;;;;;;;18.03;16.97;;;20.40;50.80;;;;;;5070101;28;20413;-47
2022/09/06 05:37:29;;;;;;;15.70;15.00;;;20.50;50.90;;;;;;5069773;28;20172;-42
2022/09/06 05:39:55;;;;;;;16.53;15.67;;;20.50;50.80;;;;;;5069966;28;20179;-45
2022/09/06 05:42:20;;;;;;;16.30;15.53;;;20.50;50.00;;;;;;5069845;28;20657;-47
2022/09/06 05:44:46;;;;;;;16.53;15.63;;;20.50;49.90;;;;;;5070042;28;20539;-45
2022/09/06 05:47:12;;;;;;;15.90;15.00;;;20.50;50.50;;;;;;5065100;28;20184;-43
2022/09/06 05:49:38;;;;;;;17.43;16.57;;;20.50;50.20;;;;;;5051255;28;20179;-43
2022/09/06 05:52:03;;;;;;;17.23;16.20;;;20.50;51.20;;;;;;5054457;28;20196;-44
2022/09/06 05:54:29;;;;;;;16.43;15.53;;;20.50;50.40;;;;;;5053262;28;20167;-49
2022/09/06 05:56:54;;;;;;;16.67;15.73;;;20.50;50.50;;;;;;5059259;28;20176;-43
2022/09/06 05:59:20;;;;;;;16.77;15.70;;;20.20;49.70;;;;;;5071444;28;20182;-48
2022/09/06 06:01:51;;;;;;;16.97;15.97;;;20.10;50.50;;;;;;5073171;28;20215;-47
2022/09/06 06:04:17;;;;;;;16.47;15.40;;;20.10;52.00;;;;;;5073153;28;20197;-44
2022/09/06 06:06:44;;;;;;;16.83;15.73;;;20.20;50.60;;;;;;5071546;28;21004;-44
2022/09/06 06:09:10;;;;;;;16.97;16.00;;;20.10;50.30;;;;;;5071760;28;20453;-44
2022/09/06 06:11:35;;;;;;;16.80;15.53;;;20.10;50.50;;;;;;5058266;28;20462;-42
2022/09/06 06:14:03;;;;;;;17.17;16.37;;;20.10;49.20;;;;;;5070591;28;20515;-48
2022/09/06 06:16:28;;;;;;;17.57;16.40;;;19.90;49.40;;;;;;5072472;28;20545;-41
2022/09/06 06:18:54;;;;;;;16.70;15.90;;;19.90;50.30;;;;;;5073802;28;20410;-45
2022/09/06 06:21:22;;;;;;;16.60;15.83;;;19.90;49.00;;;;;;5072887;28;20186;-43
2022/09/06 06:23:56;;;;;;;17.57;16.47;;;19.90;48.00;;;;;;5072604;28;20681;-41
2022/09/06 06:26:23;;;;;;;17.10;16.30;;;20.00;49.20;;;;;;5072960;28;20422;-45
2022/09/06 06:28:49;;;;;;;16.43;15.50;;;20.10;49.30;;;;;;5065188;28;20747;-52
2022/09/06 06:31:15;;;;;;;16.40;15.60;;;20.20;48.90;;;;;;5053043;28;20464;-54
2022/09/06 06:33:41;;;;;;;15.67;14.97;;;20.30;47.60;;;;;;5068358;28;20521;-54
2022/09/06 06:36:22;;;;;;;17.33;16.43;;;20.40;48.00;;;;;;5062659;28;20843;-50
2022/09/06 06:38:48;;;;;;;17.13;16.13;;;20.40;48.10;;;;;;5058403;28;20486;-50
2022/09/06 06:41:16;;;;;;;15.30;14.57;;;20.50;47.80;;;;;;5072441;28;20417;-52
2022/09/06 06:43:43;;;;;;;16.07;15.20;;;20.50;48.40;;;;;;5072687;28;20428;-52
2022/09/06 06:46:11;;;;;;;16.43;15.53;;;20.60;48.10;;;;;;5071998;28;20440;-53
2022/09/06 06:48:40;;;;;;;15.73;15.00;;;20.60;47.70;;;;;;5072389;28;20429;-48
2022/09/06 06:51:11;;;;;;;17.03;16.20;;;20.70;46.20;;;;;;5072051;28;20483;-49
2022/09/06 06:53:37;;;;;;;16.83;16.13;;;20.70;44.60;;;;;;5072106;28;20489;-50
2022/09/06 06:56:13;;;;;;;17.20;16.40;;;20.70;44.40;;;;;;5072228;28;20454;-43
2022/09/06 06:58:39;;;;;;;17.53;16.37;;;20.60;42.20;;;;;;5070652;28;20199;-54
2022/09/06 07:01:05;;;;;;;17.70;16.90;;;20.50;42.60;;;;;;5070651;28;21162;-50
2022/09/06 07:03:31;;;;;;;17.20;16.50;;;20.50;42.70;;;;;;5068172;28;20334;-55
2022/09/06 07:05:56;;;;;;;16.47;15.73;;;20.50;42.90;;;;;;5071786;28;20209;-50
2022/09/06 07:08:22;;;;;;;15.80;15.00;;;20.60;43.60;;;;;;5071533;28;20612;-47
2022/09/06 07:10:48;;;;;;;15.57;14.73;;;20.70;43.60;;;;;;5071169;28;20183;-48
2022/09/06 07:13:13;;;;;;;16.23;15.10;;;20.70;42.80;;;;;;5071230;28;20211;-42
2022/09/06 07:15:39;;;;;;;15.60;14.63;;;20.80;42.10;;;;;;5071217;28;20201;-43
2022/09/06 07:18:05;;;;;;;15.87;15.07;;;20.80;42.40;;;;;;5071460;28;20222;-46
2022/09/06 07:20:31;;;;;;;16.17;15.00;;;20.90;42.30;;;;;;5071658;28;20619;-42
2022/09/06 07:23:01;;;;;;;16.20;15.30;;;21.00;41.20;;;;;;5068653;28;20433;-45
2022/09/06 07:25:27;;;;;;;17.20;15.93;;;21.00;40.30;;;;;;5052428;28;20521;-42
2022/09/06 07:28:05;;;;;;;15.90;15.20;;;21.00;40.40;;;;;;5052204;28;20505;-44
2022/09/06 07:30:33;;;;;;;16.00;14.90;;;21.00;40.00;;;;;;5071960;28;20776;-41
2022/09/06 07:32:59;;;;;;;14.70;14.10;;;21.10;40.00;;;;;;5072242;28;20468;-42
2022/09/06 07:35:26;;;;;;;16.40;15.60;;;21.10;40.00;;;;;;5072147;28;20413;-41
2022/09/06 07:37:53;;;;;;;16.27;15.50;;;21.20;40.00;;;;;;5072140;28;20417;-44
2022/09/06 07:40:19;;;;;;;16.70;15.60;;;21.20;40.00;;;;;;5071896;28;20418;-47
2022/09/06 07:42:44;;;;;;;15.80;15.00;;;21.20;40.20;;;;;;5072127;28;21029;-45
2022/09/06 07:45:10;;;;;;;15.67;14.97;;;21.30;42.20;;;;;;5071909;28;20182;-47
2022/09/06 07:47:37;;;;;;;15.70;14.90;;;21.30;40.50;;;;;;5071881;28;20183;-49
2022/09/06 07:50:03;;;;;;;15.70;14.80;;;21.30;41.40;;;;;;5071757;28;20432;-46
2022/09/06 07:52:29;;;;;;;16.20;15.50;;;21.40;40.10;;;;;;5071537;28;20461;-44
2022/09/06 07:54:55;;;;;;;16.00;15.27;;;21.40;38.80;;;;;;5071779;28;20912;-44
2022/09/06 07:57:22;;;;;;;14.57;13.87;;;21.40;38.90;;;;;;5071718;28;20179;-44
2022/09/06 07:59:47;;;;;;;14.80;13.93;;;21.50;39.40;;;;;;5071555;28;20410;-43
2022/09/06 08:02:13;;;;;;;16.20;15.40;;;21.60;37.50;;;;;;5072873;28;20413;-44
2022/09/06 08:04:40;;;;;;;16.53;15.70;;;21.70;37.90;;;;;;5071461;28;20206;-42
2022/09/06 08:07:06;;;;;;;15.00;14.13;;;21.70;38.00;;;;;;5071468;28;20508;-45
2022/09/06 08:09:32;;;;;;;15.43;14.60;;;21.80;39.50;;;;;;5071493;28;20516;-44
2022/09/06 08:11:57;;;;;;;15.33;14.63;;;21.80;40.40;;;;;;5070520;28;20750;-42
2022/09/06 08:14:23;;;;;;;16.50;15.50;;;21.80;41.00;;;;;;5071405;28;20541;-45
2022/09/06 08:16:49;;;;;;;16.80;16.10;;;21.90;36.00;;;;;;5071424;28;20202;-45
2022/09/06 08:19:15;;;;;;;16.73;15.77;;;22.00;35.50;;;;;;5071482;28;20175;-48
2022/09/06 08:21:41;;;;;;;16.87;16.10;;;22.20;34.50;;;;;;5071197;28;20308;-54
2022/09/06 08:24:11;;;;;;;17.27;16.37;;;22.20;35.30;;;;;;5071592;28;20417;-55
2022/09/06 08:26:43;;;;;;;17.20;16.20;;;22.30;37.10;;;;;;5070810;28;20262;-55
2022/09/06 08:29:10;;;;;;;17.20;16.07;;;22.30;34.40;;;;;;5071237;28;20413;-47
2022/09/06 08:31:38;;;;;;;17.47;16.47;;;22.40;33.70;;;;;;5070935;28;20467;-45
2022/09/06 08:34:05;;;;;;;16.50;15.60;;;22.60;32.90;;;;;;5070308;28;20794;-42
2022/09/06 08:36:31;;;;;;;15.90;15.07;;;22.70;32.20;;;;;;5070787;28;20421;-43
2022/09/06 08:38:59;;;;;;;16.03;15.33;;;22.70;33.70;;;;;;5070055;28;20412;-45
2022/09/06 08:41:56;;;;;;;15.50;14.70;;;22.90;32.80;;;;;;5070052;28;20436;-45
2022/09/06 08:44:23;;;;;;;14.63;13.87;;;23.00;30.90;;;;;;5071163;28;20405;-51
2022/09/06 08:46:57;;;;;;;15.20;14.50;;;23.10;30.50;;;;;;5069888;28;20421;-48
2022/09/06 08:49:25;;;;;;;15.20;14.50;;;23.20;31.10;;;;;;5070146;28;20916;-51
2022/09/06 08:52:02;;;;;;;14.90;14.10;;;23.30;29.80;;;;;;5069169;28;20532;-53
2022/09/06 08:54:33;;;;;;;15.70;14.70;;;23.50;29.40;;;;;;5069647;28;20455;-44
2022/09/06 08:57:13;;;;;;;15.23;14.50;;;23.60;30.30;;;;;;5069406;28;20425;-52
2022/09/06 08:59:41;;;;;;;14.23;13.50;;;23.60;31.70;;;;;;5068966;28;20409;-55
2022/09/06 09:02:10;;;;;;;16.17;15.07;;;23.70;29.00;;;;;;5070446;28;20417;-52
2022/09/06 09:04:41;;;;;;;14.93;14.20;;;23.90;28.50;;;;;;5070751;28;20422;-45
2022/09/06 09:07:18;;;;;;;15.37;14.70;;;24.00;28.50;;;;;;5070824;28;20450;-51
2022/09/06 09:09:45;;;;;;;15.40;14.40;;;24.10;28.40;;;;;;5070603;28;20422;-48
2022/09/06 09:12:21;;;;;;;15.70;14.20;;;24.20;28.20;;;;;;5070420;28;20461;-46
2022/09/06 09:14:52;;;;;;;16.03;15.20;;;24.30;28.00;;;;;;5070705;28;20443;-42
2022/09/06 09:17:24;;;;;;;15.10;14.20;;;24.40;27.80;;;;;;5070769;28;20505;-42
2022/09/06 09:19:50;;;;;;;15.90;15.00;;;24.50;27.70;;;;;;5070718;28;20417;-45
2022/09/06 09:22:18;;;;;;;14.40;13.60;;;24.60;28.00;;;;;;5070548;28;20776;-42
2022/09/06 09:24:46;;;;;;;15.13;14.17;;;24.80;27.50;;;;;;5073748;28;20183;-42
2022/09/06 09:27:15;;;;;;;15.33;14.63;;;25.00;26.80;;;;;;5074539;28;20425;-46
2022/09/06 09:29:52;;;;;;;15.87;14.73;;;25.00;28.10;;;;;;5074474;28;20421;-47
2022/09/06 09:32:39;;;;;;;15.10;14.10;;;25.00;27.50;;;;;;5074392;28;20468;-55
2022/09/06 09:35:20;;;;;;;14.30;13.70;;;25.10;27.10;;;;;;5074285;28;20406;-55
2022/09/06 09:37:47;;;;;;;14.50;13.80;;;25.10;27.30;;;;;;5074287;28;20416;-55
2022/09/06 09:40:25;;;;;;;16.33;15.43;;;25.20;27.10;;;;;;5074089;28;20421;-47
2022/09/06 09:42:53;;;;;;;14.83;14.13;;;25.40;26.70;;;;;;5074219;28;20444;-43
2022/09/06 09:45:19;;;;;;;15.30;14.60;;;25.50;26.00;;;;;;5074093;28;21046;-43
2022/09/06 09:47:45;;;;;;;14.80;13.90;;;25.70;25.80;;;;;;5074188;28;20492;-46
2022/09/06 09:50:33;;;;;;;14.70;14.00;;;25.90;25.50;;;;;;5074123;28;20224;-48
2022/09/06 09:53:25;;;;;;;14.53;13.83;;;26.10;25.50;;;;;;5073293;28;20472;-46
2022/09/06 09:55:56;;;;;;;15.43;14.60;;;26.30;24.70;;;;;;5088161;28;20437;-45
2022/09/06 09:58:32;;;;;;;15.10;14.20;;;26.40;24.20;;;;;;5073786;28;20466;-55
2022/09/06 10:01:23;;;;;;;15.00;14.20;;;26.50;24.00;;;;;;5073446;28;20463;-57
2022/09/06 10:03:50;;;;;;;14.77;13.97;;;26.70;24.20;;;;;;5083506;28;20505;-57
2022/09/06 10:06:25;;;;;;;15.90;14.87;;;26.80;23.20;;;;;;5073529;28;20466;-54
2022/09/06 10:08:50;;;;;;;14.43;13.73;;;26.90;24.10;;;;;;5073672;28;20503;-54
2022/09/06 10:11:47;;;;;;;14.47;13.33;;;26.90;21.90;;;;;;5056833;28;20559;-55
2022/09/06 10:14:27;;;;;;;14.70;13.73;;;27.00;22.10;;;;;;5073333;28;20171;-54
2022/09/06 10:16:54;;;;;;;14.80;13.80;;;26.90;21.80;;;;;;5073250;28;20405;-54
2022/09/06 10:19:30;;;;;;;14.07;13.37;;;27.00;21.70;;;;;;5073184;28;20406;-51
2022/09/06 10:22:02;;;;;;;14.63;13.60;;;27.00;21.30;;;;;;5073157;28;20435;-55
2022/09/06 10:24:54;;;;;;;14.93;14.10;;;27.10;21.10;;;;;;5073098;28;20508;-55
2022/09/06 10:27:25;;;;;;;14.30;13.50;;;27.10;22.30;;;;;;5073233;28;20453;-57
2022/09/06 10:30:05;;;;;;;13.90;13.40;;;27.00;21.40;;;;;;5072929;28;20408;-55
2022/09/06 10:33:19;;;;;;;14.53;13.80;;;26.90;21.80;;;;;;5072819;28;20500;-57
2022/09/06 10:35:44;;;;;;;13.80;13.00;;;26.90;21.00;;;;;;5035766;28;20778;-57
2022/09/06 10:38:40;;;;;;;14.40;13.50;;;27.00;20.10;;;;;;5073078;28;20486;-56
2022/09/06 10:41:32;;;;;;;15.13;14.10;;;27.00;20.30;;;;;;5074109;28;20178;-57
2022/09/06 10:44:55;;;;;;;13.90;13.20;;;26.90;21.80;;;;;;5072755;28;20405;-55
2022/09/06 10:47:22;;;;;;;13.33;12.63;;;26.70;21.70;;;;;;5031502;28;20770;-57
2022/09/06 10:49:57;;;;;;;13.97;13.30;;;26.70;21.30;;;;;;5015291;28;20841;-57
2022/09/06 10:52:33;;;;;;;14.07;13.37;;;26.70;21.20;;;;;;5044353;28;20461;-58
2022/09/06 10:55:03;;;;;;;14.20;13.47;;;26.60;21.00;;;;;;5072427;28;20894;-56
2022/09/06 10:57:40;;;;;;;14.03;13.33;;;26.60;22.20;;;;;;5072560;28;20428;-56
2022/09/06 11:00:15;;;;;;;14.70;13.90;;;26.50;22.10;;;;;;5068602;28;20438;-56
2022/09/06 11:03:04;;;;;;;13.67;12.97;;;26.40;22.30;;;;;;5052456;28;20425;-57
2022/09/06 11:06:03;;;;;;;14.03;13.13;;;26.40;22.80;;;;;;5052235;28;20414;-54
2022/09/06 11:08:44;;;;;;;13.60;12.80;;;26.40;22.80;;;;;;5053480;28;20410;-54
2022/09/06 11:11:15;;;;;;;14.70;13.63;;;26.40;22.30;;;;;;5052385;28;20507;-55
2022/09/06 11:13:41;;;;;;;14.13;13.30;;;26.40;22.50;;;;;;5052185;28;20969;-55
2022/09/06 11:16:29;;;;;;;14.97;13.87;;;26.40;22.10;;;;;;5052169;28;20422;-57
2022/09/06 11:18:55;;;;;;;14.73;13.70;;;26.40;22.20;;;;;;5052281;28;20172;-57
2022/09/06 11:21:59;;;;;;;13.77;13.07;;;26.30;22.60;;;;;;5051887;28;20415;-56
2022/09/06 11:24:57;;;;;;;13.43;12.83;;;26.30;22.70;;;;;;5051956;28;20422;-55
2022/09/06 11:27:29;;;;;;;13.70;13.00;;;26.50;22.20;;;;;;5050973;28;20789;-56
2022/09/06 11:29:56;;;;;;;14.27;12.83;;;26.70;21.70;;;;;;5051725;28;20427;-54
2022/09/06 11:32:31;;;;;;;13.10;12.50;;;26.70;22.00;;;;;;5051792;28;20462;-54
2022/09/06 11:35:00;;;;;;;13.57;12.87;;;26.60;22.00;;;;;;5051879;28;20422;-56
2022/09/06 11:37:49;;;;;;;13.03;12.23;;;26.60;22.20;;;;;;5052969;28;20407;-58
2022/09/06 11:40:24;;;;;;;13.20;12.57;;;26.60;22.30;;;;;;5051651;28;20794;-57
2022/09/06 11:42:50;;;;;;;13.20;12.23;;;26.70;21.70;;;;;;5051768;28;20430;-54
2022/09/06 11:45:20;;;;;;;13.73;12.73;;;26.70;22.00;;;;;;5051658;28;20472;-57
2022/09/06 11:47:52;;;;;;;14.60;13.50;;;26.80;21.50;;;;;;5051599;28;20180;-58
2022/09/06 11:50:23;;;;;;;14.20;13.30;;;26.90;21.40;;;;;;5052520;28;21036;-55
2022/09/06 11:52:59;;;;;;;14.37;13.63;;;26.90;21.80;;;;;;5051271;28;20466;-57
2022/09/06 11:55:45;;;;;;;13.87;13.27;;;26.80;22.30;;;;;;5051362;28;20438;-56
2022/09/06 11:58:17;;;;;;;14.27;13.37;;;26.60;22.30;;;;;;5051146;28;20419;-58
2022/09/06 12:01:11;;;;;;;14.07;13.23;;;26.50;22.00;;;;;;5051086;28;20430;-44
2022/09/06 12:03:46;;;;;;;12.80;12.20;;;26.40;22.60;;;;;;5051206;28;20434;-48
2022/09/06 12:06:15;;;;;;;13.20;12.53;;;26.40;22.80;;;;;;5051311;28;20410;-54
2022/09/06 12:08:42;;;;;;;13.90;13.20;;;26.30;22.60;;;;;;5051160;28;20427;-43
2022/09/06 12:11:40;;;;;;;13.00;12.00;;;26.30;21.50;;;;;;5050946;28;20795;-45
2022/09/06 12:14:08;;;;;;;13.30;12.70;;;26.30;22.00;;;;;;5051213;28;20450;-45
2022/09/06 12:17:03;;;;;;;13.90;12.97;;;26.40;21.50;;;;;;5051049;28;20441;-45
2022/09/06 12:19:40;;;;;;;13.77;13.07;;;26.40;22.10;;;;;;5050977;28;20402;-44
2022/09/06 12:22:39;;;;;;;13.63;12.83;;;26.50;21.50;;;;;;5050945;28;20488;-46
2022/09/06 12:25:14;;;;;;;13.47;12.70;;;26.50;21.80;;;;;;5051024;28;20413;-45
2022/09/06 12:28:04;;;;;;;15.00;14.03;;;26.50;22.00;;;;;;5050888;28;20406;-45
2022/09/06 12:30:34;;;;;;;14.07;13.20;;;26.50;22.90;;;;;;5050570;28;20410;-46
2022/09/06 12:33:24;;;;;;;13.30;12.60;;;26.50;23.20;;;;;;5050803;28;20454;-47
2022/09/06 12:35:50;;;;;;;13.93;13.20;;;26.40;23.40;;;;;;5068113;28;20432;-45
2022/09/06 12:38:20;;;;;;;14.27;13.13;;;26.40;23.90;;;;;;5070755;28;20413;-49
2022/09/06 12:40:51;;;;;;;14.20;13.40;;;26.30;24.10;;;;;;5071718;28;20823;-44
2022/09/06 12:43:17;;;;;;;14.13;13.43;;;26.30;24.70;;;;;;5070773;28;20422;-47
2022/09/06 12:45:52;;;;;;;14.60;13.30;;;26.20;25.70;;;;;;5070472;28;20417;-45
2022/09/06 12:48:34;;;;;;;14.47;13.50;;;26.10;27.30;;;;;;5070622;28;20417;-48